createdAt,value
2022-11-21T00:01:22.453Z,6.90
2022-11-21T00:03:49.834Z,6.90
2022-11-21T00:06:17.392Z,6.80
2022-11-21T00:08:44.723Z,7.00
2022-11-21T00:11:11.920Z,6.80
2022-11-21T00:13:38.930Z,6.80
2022-11-21T00:16:08.490Z,6.70
2022-11-21T00:18:36.209Z,6.90
2022-11-21T00:21:22.098Z,7.00
2022-11-21T00:23:49.034Z,7.20
2022-11-21T00:26:17.453Z,7.00
2022-11-21T00:28:45.255Z,6.90
2022-11-21T00:31:23.277Z,7.00
2022-11-21T00:33:50.031Z,6.90
2022-11-21T00:36:16.922Z,7.00
2022-11-21T00:38:43.648Z,7.10
2022-11-21T00:41:10.405Z,7.00
2022-11-21T00:43:37.190Z,7.20
2022-11-21T00:46:04.260Z,7.00
2022-11-21T00:48:32.095Z,7.20
2022-11-21T00:51:00.442Z,7.20
2022-11-21T00:53:27.763Z,7.10
2022-11-21T00:55:54.579Z,7.10
2022-11-21T00:58:21.442Z,7.20
2022-11-21T01:00:48.206Z,7.30
2022-11-21T01:03:15.054Z,7.30
2022-11-21T01:05:41.863Z,7.10
2022-11-21T01:08:08.679Z,7.30
2022-11-21T01:10:36.606Z,7.20
2022-11-21T01:13:03.526Z,7.20
2022-11-21T01:15:30.302Z,7.20
2022-11-21T01:17:57.016Z,7.10
2022-11-21T01:20:23.764Z,7.30
2022-11-21T01:22:50.520Z,7.10
2022-11-21T01:25:17.386Z,7.10
2022-11-21T01:27:44.150Z,6.90
2022-11-21T01:30:11.864Z,7.10
2022-11-21T01:32:38.613Z,7.10
2022-11-21T01:35:06.060Z,7.30
2022-11-21T01:37:32.782Z,7.20
2022-11-21T01:39:59.537Z,7.00
2022-11-21T01:42:26.254Z,7.00
2022-11-21T01:44:54.449Z,7.00
2022-11-21T01:47:22.590Z,6.80
2022-11-21T01:49:52.178Z,7.00
2022-11-21T01:52:29.419Z,7.10
2022-11-21T01:55:03.262Z,7.30
2022-11-21T01:57:41.443Z,6.90
2022-11-21T02:00:11.091Z,7.10
2022-11-21T02:02:46.254Z,7.00
2022-11-21T02:05:25.979Z,7.20
2022-11-21T02:07:57.747Z,7.00
2022-11-21T02:10:24.949Z,7.10
2022-11-21T02:12:58.173Z,7.20
2022-11-21T02:15:27.893Z,8.00
2022-11-21T02:17:54.690Z,7.70
2022-11-21T02:20:25.132Z,7.50
2022-11-21T02:23:23.356Z,7.20
2022-11-21T02:25:51.088Z,7.20
2022-11-21T02:28:21.428Z,7.10
2022-11-21T02:30:48.172Z,6.90
2022-11-21T02:33:16.257Z,7.30
2022-11-21T02:35:43.022Z,7.30
2022-11-21T02:38:31.856Z,7.00
2022-11-21T02:41:13.750Z,7.10
2022-11-21T02:43:51.408Z,7.40
2022-11-21T02:46:18.163Z,7.30
2022-11-21T02:48:45.276Z,8.00
2022-11-21T02:51:12.011Z,7.80
2022-11-21T02:53:47.380Z,7.60
2022-11-21T02:56:29.497Z,7.80
2022-11-21T02:58:59.550Z,7.60
2022-11-21T03:01:33.008Z,8.00
2022-11-21T03:04:01.132Z,8.10
2022-11-21T03:06:33.704Z,7.80
2022-11-21T03:09:08.638Z,7.80
2022-11-21T03:11:40.302Z,7.80
2022-11-21T03:14:15.375Z,8.10
2022-11-21T03:20:03.694Z,8.00
2022-11-21T03:22:30.656Z,7.80
2022-11-21T03:24:57.440Z,7.80
2022-11-21T03:27:24.304Z,7.20
2022-11-21T03:29:51.067Z,7.70
2022-11-21T03:32:17.798Z,7.50
2022-11-21T03:34:44.540Z,7.80
2022-11-21T03:37:11.248Z,7.40
2022-11-21T03:39:37.973Z,7.20
2022-11-21T03:42:04.818Z,7.30
2022-11-21T03:44:31.541Z,7.30
2022-11-21T03:46:58.262Z,7.60
2022-11-21T03:49:25.012Z,7.50
2022-11-21T03:51:51.753Z,7.30
2022-11-21T03:54:19.566Z,7.20
2022-11-21T03:56:46.304Z,7.30
2022-11-21T03:59:13.066Z,7.10
2022-11-21T04:01:39.840Z,7.20
2022-11-21T04:04:06.673Z,7.20
2022-11-21T04:06:33.399Z,7.20
2022-11-21T04:09:00.254Z,7.10
2022-11-21T04:11:26.977Z,7.20
2022-11-21T04:13:53.714Z,7.20
2022-11-21T04:16:20.870Z,7.30
2022-11-21T04:18:47.610Z,7.30
2022-11-21T04:21:14.382Z,7.30
2022-11-21T04:23:41.105Z,7.30
2022-11-21T04:26:08.206Z,7.30
2022-11-21T04:28:35.028Z,7.20
2022-11-21T04:31:10.297Z,7.60
2022-11-21T04:33:38.811Z,7.40
2022-11-21T04:36:09.324Z,7.40
2022-11-21T04:38:36.807Z,7.20
2022-11-21T04:41:04.666Z,7.10
2022-11-21T04:43:31.397Z,7.10
2022-11-21T04:45:58.188Z,7.20
2022-11-21T04:48:24.905Z,7.60
2022-11-21T04:50:51.672Z,7.20
2022-11-21T04:53:18.429Z,7.10
2022-11-21T04:55:45.202Z,7.00
2022-11-21T04:58:12.024Z,7.20
2022-11-21T05:00:38.757Z,7.20
2022-11-21T05:03:07.607Z,7.30
2022-11-21T05:05:34.400Z,7.30
2022-11-21T05:08:01.142Z,7.30
2022-11-21T05:10:27.978Z,7.10
2022-11-21T05:13:19.844Z,7.10
2022-11-21T05:15:47.533Z,7.00
2022-11-21T05:18:14.294Z,7.00
2022-11-21T05:20:41.378Z,7.20
2022-11-21T05:23:08.102Z,7.10
2022-11-21T05:25:34.842Z,7.30
2022-11-21T05:28:01.556Z,7.00
2022-11-21T05:30:28.286Z,7.10
2022-11-21T05:32:55.085Z,7.10
2022-11-21T05:35:21.858Z,7.00
2022-11-21T05:37:48.621Z,7.20
2022-11-21T05:40:15.885Z,7.10
2022-11-21T05:43:01.294Z,7.10
2022-11-21T05:45:28.142Z,7.00
2022-11-21T05:47:54.888Z,7.40
2022-11-21T05:50:21.629Z,7.40
2022-11-21T05:52:48.403Z,7.10
2022-11-21T05:55:15.464Z,7.30
2022-11-21T05:57:42.196Z,7.10
2022-11-21T06:00:09.753Z,7.30
2022-11-21T06:02:54.967Z,7.30
2022-11-21T06:05:21.721Z,7.10
2022-11-21T06:07:48.465Z,7.20
2022-11-21T06:10:15.366Z,7.20
2022-11-21T06:12:42.098Z,7.10
2022-11-21T06:15:09.408Z,7.10
2022-11-21T06:17:36.134Z,7.30
2022-11-21T06:20:02.989Z,7.10
2022-11-21T06:22:29.793Z,7.10
2022-11-21T06:24:56.552Z,7.10
2022-11-21T06:27:23.289Z,7.10
2022-11-21T06:29:50.027Z,7.00
2022-11-21T06:32:16.856Z,7.00
2022-11-21T06:34:43.682Z,7.10
2022-11-21T06:37:10.417Z,7.00
2022-11-21T06:39:37.238Z,6.90
2022-11-21T06:42:04.168Z,7.00
2022-11-21T06:44:31.128Z,7.00
2022-11-21T06:46:57.985Z,7.00
2022-11-21T06:49:24.902Z,7.10
2022-11-21T06:51:51.653Z,7.00
2022-11-21T06:54:18.406Z,7.00
2022-11-21T06:56:45.153Z,7.00
2022-11-21T06:59:11.887Z,7.00
2022-11-21T07:01:38.775Z,7.00
2022-11-21T07:04:05.545Z,6.90
2022-11-21T07:06:34.498Z,7.00
2022-11-21T07:11:47.943Z,6.80
2022-11-21T07:14:14.687Z,6.80
2022-11-21T07:16:41.416Z,6.90
2022-11-21T07:19:08.146Z,6.90
2022-11-21T07:21:34.906Z,6.80
2022-11-21T07:24:01.760Z,6.90
2022-11-21T07:26:28.549Z,6.90
2022-11-21T07:28:55.284Z,7.00
2022-11-21T07:31:22.131Z,6.80
2022-11-21T07:33:49.015Z,7.00
2022-11-21T07:36:15.757Z,7.40
2022-11-21T07:38:42.596Z,7.50
2022-11-21T07:41:10.099Z,7.60
2022-11-21T07:43:36.886Z,8.00
2022-11-21T07:46:03.662Z,7.40
2022-11-21T07:48:30.439Z,8.10
2022-11-21T07:50:57.194Z,7.50
2022-11-21T07:53:24.147Z,7.50
2022-11-21T07:55:50.912Z,7.30
2022-11-21T07:58:18.033Z,7.10
2022-11-21T08:00:44.865Z,7.00
2022-11-21T08:03:13.563Z,7.40
2022-11-21T08:05:43.502Z,7.30
2022-11-21T08:08:12.734Z,7.20
2022-11-21T08:10:42.549Z,7.10
2022-11-21T08:13:09.836Z,7.10
2022-11-21T08:15:37.002Z,7.00
2022-11-21T08:18:17.118Z,7.20
2022-11-21T08:20:43.901Z,7.00
2022-11-21T08:23:11.047Z,7.30
2022-11-21T08:25:39.816Z,7.20
2022-11-21T08:28:07.816Z,7.50
2022-11-21T08:30:35.925Z,7.20
2022-11-21T08:33:03.550Z,7.30
2022-11-21T08:35:30.691Z,7.40
2022-11-21T08:38:01.548Z,7.50
2022-11-21T08:40:31.267Z,7.40
2022-11-21T08:43:04.426Z,7.60
2022-11-21T08:45:33.547Z,7.60
2022-11-21T08:48:00.879Z,7.60
2022-11-21T08:50:31.876Z,7.80
2022-11-21T08:53:02.357Z,8.00
2022-11-21T08:55:30.232Z,7.50
2022-11-21T08:57:57.192Z,7.70
2022-11-21T09:00:24.295Z,7.70
2022-11-21T09:02:51.199Z,7.70
2022-11-21T09:05:17.982Z,8.10
2022-11-21T09:07:44.899Z,8.00
2022-11-21T09:10:11.758Z,8.10
2022-11-21T09:12:38.546Z,8.10
2022-11-21T09:15:24.873Z,8.00
2022-11-21T09:18:03.744Z,8.20
2022-11-21T09:20:38.995Z,8.10
2022-11-21T09:23:11.064Z,8.10
2022-11-21T09:25:38.161Z,8.50
2022-11-21T09:28:07.745Z,8.00
2022-11-21T09:30:35.698Z,8.10
2022-11-21T09:33:04.141Z,8.30
2022-11-21T09:35:31.496Z,8.80
2022-11-21T09:37:59.015Z,8.70
2022-11-21T09:40:26.346Z,8.30
2022-11-21T09:43:31.079Z,8.80
2022-11-21T09:46:13.943Z,8.40
2022-11-21T09:49:01.266Z,8.30
2022-11-21T09:51:30.912Z,8.40
2022-11-21T09:54:17.907Z,8.40
2022-11-21T09:56:45.402Z,8.60
2022-11-21T09:59:21.403Z,8.80
2022-11-21T10:01:48.348Z,8.80
2022-11-21T10:04:15.138Z,9.10
2022-11-21T10:07:13.195Z,8.80
2022-11-21T10:10:20.686Z,8.80
2022-11-21T10:13:28.787Z,8.80
2022-11-21T10:16:18.807Z,9.00
2022-11-21T10:18:58.230Z,8.80
2022-11-21T10:21:24.910Z,8.70
2022-11-21T10:24:17.246Z,8.70
2022-11-21T10:27:06.906Z,8.90
2022-11-21T10:29:54.913Z,9.10
2022-11-21T10:32:35.144Z,9.20
2022-11-21T10:35:14.791Z,8.90
2022-11-21T10:37:54.368Z,9.70
2022-11-21T10:40:33.382Z,9.80
2022-11-21T10:43:53.324Z,9.10
2022-11-21T10:46:20.526Z,8.90
2022-11-21T10:49:00.793Z,9.10
2022-11-21T10:51:57.343Z,9.00
2022-11-21T10:54:32.997Z,8.80
2022-11-21T10:57:22.189Z,9.10
2022-11-21T11:00:15.043Z,9.40
2022-11-21T11:03:05.320Z,9.20
2022-11-21T11:05:37.707Z,9.40
2022-11-21T11:08:14.709Z,9.10
2022-11-21T11:11:01.760Z,9.10
2022-11-21T11:13:51.682Z,9.90
2022-11-21T11:16:24.390Z,9.80
2022-11-21T11:19:04.253Z,9.60
2022-11-21T11:21:51.317Z,9.30
2022-11-21T11:24:20.197Z,9.50
2022-11-21T11:26:48.417Z,9.60
2022-11-21T11:29:21.790Z,9.50
2022-11-21T11:31:59.437Z,9.60
2022-11-21T11:34:40.434Z,9.60
2022-11-21T11:37:38.740Z,9.30
2022-11-21T11:40:30.546Z,9.80
2022-11-21T11:43:32.401Z,9.80
2022-11-21T11:46:35.741Z,10.10
2022-11-21T11:49:20.432Z,10.20
2022-11-21T11:51:55.399Z,10.20
2022-11-21T11:54:34.458Z,10.40
2022-11-21T11:57:04.009Z,10.10
2022-11-21T11:59:51.364Z,10.10
2022-11-21T12:03:02.779Z,10.40
2022-11-21T12:05:32.249Z,10.50
2022-11-21T12:08:47.539Z,10.20
2022-11-21T12:12:03.274Z,10.40
2022-11-21T12:15:36.283Z,10.10
2022-11-21T12:18:21.234Z,10.20
2022-11-21T12:21:03.304Z,10.50
2022-11-21T12:23:41.868Z,10.50
2022-11-21T12:26:20.545Z,10.60
2022-11-21T12:29:02.322Z,10.70
2022-11-21T12:32:02.646Z,10.60
2022-11-21T12:35:11.405Z,11.00
2022-11-21T12:38:15.498Z,11.00
2022-11-21T12:41:36.635Z,11.40
2022-11-21T12:44:27.177Z,11.40
2022-11-21T12:47:54.564Z,11.40
2022-11-21T12:50:48.302Z,11.70
2022-11-21T12:53:59.587Z,11.30
2022-11-21T12:57:11.949Z,11.70
2022-11-21T13:00:13.725Z,11.40
2022-11-21T13:03:37.203Z,11.30
2022-11-21T13:06:06.805Z,11.40
2022-11-21T13:08:36.922Z,11.70
2022-11-21T13:11:31.572Z,11.70
2022-11-21T13:14:15.782Z,12.00
2022-11-21T13:16:52.042Z,12.10
2022-11-21T13:20:02.182Z,12.40
2022-11-21T13:22:51.517Z,12.30
2022-11-21T13:25:33.700Z,12.60
2022-11-21T13:28:18.778Z,12.80
2022-11-21T13:30:52.841Z,12.80
2022-11-21T13:33:35.004Z,12.60
2022-11-21T13:36:13.472Z,12.60
2022-11-21T13:38:54.953Z,12.70
2022-11-21T13:41:55.569Z,12.30
2022-11-21T13:44:31.671Z,12.40
2022-11-21T13:47:12.253Z,12.00
2022-11-21T13:50:23.067Z,12.40
2022-11-21T13:53:45.281Z,12.10
2022-11-21T13:56:36.268Z,12.20
2022-11-21T13:59:44.523Z,12.10
2022-11-21T14:02:39.007Z,12.20
2022-11-21T14:05:52.442Z,11.90
2022-11-21T14:08:26.881Z,11.90
2022-11-21T14:10:56.049Z,11.80
2022-11-21T14:13:31.818Z,12.00
2022-11-21T14:16:24.103Z,11.70
2022-11-21T14:18:51.617Z,11.70
2022-11-21T14:21:27.028Z,12.20
2022-11-21T14:23:58.036Z,12.40
2022-11-21T14:26:25.563Z,12.30
2022-11-21T14:28:52.614Z,12.30
2022-11-21T14:31:19.416Z,12.50
2022-11-21T14:33:47.943Z,12.30
2022-11-21T14:36:18.985Z,12.30
2022-11-21T14:39:35.421Z,12.40
2022-11-21T14:42:05.850Z,12.20
2022-11-21T14:44:32.678Z,12.30
2022-11-21T14:47:12.708Z,12.10
2022-11-21T14:49:39.466Z,12.20
2022-11-21T14:52:12.112Z,11.90
2022-11-21T14:57:50.217Z,12.30
2022-11-21T15:00:57.460Z,12.30
2022-11-21T15:03:22.694Z,12.00
2022-11-21T15:06:08.165Z,12.30
2022-11-21T15:09:18.355Z,12.20
2022-11-21T15:11:36.217Z,11.80
2022-11-21T15:14:18.929Z,11.70
2022-11-21T15:16:49.056Z,11.40
2022-11-21T15:19:28.701Z,11.50
2022-11-21T15:22:00.262Z,11.40
2022-11-21T15:24:43.813Z,11.40
2022-11-21T15:27:32.935Z,11.20
2022-11-21T15:30:06.724Z,11.30
2022-11-21T15:32:33.578Z,11.40
2022-11-21T15:35:01.467Z,11.50
2022-11-21T15:37:28.324Z,11.10
2022-11-21T15:39:55.378Z,11.20
2022-11-21T15:42:34.296Z,11.20
2022-11-21T15:45:23.834Z,11.50
2022-11-21T15:47:50.620Z,11.50
2022-11-21T15:50:17.994Z,11.40
2022-11-21T15:52:50.863Z,11.00
2022-11-21T15:55:23.848Z,11.20
2022-11-21T15:57:50.802Z,11.20
2022-11-21T16:00:17.884Z,10.60
2022-11-21T16:02:44.678Z,10.40
2022-11-21T16:05:15.845Z,9.70
2022-11-21T16:07:42.727Z,10.00
2022-11-21T16:10:18.394Z,10.50
2022-11-21T16:12:49.551Z,10.80
2022-11-21T16:15:16.486Z,11.00
2022-11-21T16:17:45.402Z,10.90
2022-11-21T16:20:12.553Z,11.00
2022-11-21T16:22:42.811Z,11.10
2022-11-21T16:25:13.787Z,11.40
2022-11-21T16:27:40.518Z,11.10
2022-11-21T16:30:07.875Z,11.00
2022-11-21T16:32:34.608Z,11.30
2022-11-21T16:35:01.348Z,11.10
2022-11-21T16:37:28.178Z,11.60
2022-11-21T16:39:54.913Z,11.80
2022-11-21T16:42:21.747Z,12.20
2022-11-21T16:44:48.533Z,11.80
2022-11-21T16:47:15.526Z,11.40
2022-11-21T16:49:48.255Z,11.10
2022-11-21T16:52:15.924Z,10.70
2022-11-21T16:54:42.698Z,10.40
2022-11-21T16:57:09.800Z,10.10
2022-11-21T16:59:36.657Z,10.10
2022-11-21T17:02:03.836Z,10.40
2022-11-21T17:04:30.946Z,10.10
2022-11-21T17:06:57.950Z,10.20
2022-11-21T17:09:24.716Z,10.30
2022-11-21T17:11:51.549Z,10.80
2022-11-21T17:14:18.277Z,10.80
2022-11-21T17:16:45.694Z,11.00
2022-11-21T17:19:16.108Z,10.40
2022-11-21T17:21:42.930Z,11.00
2022-11-21T17:24:12.350Z,10.40
2022-11-21T17:26:39.122Z,10.10
2022-11-21T17:29:06.009Z,10.60
2022-11-21T17:31:33.042Z,10.20
2022-11-21T17:34:01.210Z,9.80
2022-11-21T17:36:30.771Z,10.00
2022-11-21T17:38:57.794Z,9.70
2022-11-21T17:41:27.200Z,10.00
2022-11-21T17:43:56.573Z,10.80
2022-11-21T17:46:25.508Z,10.80
2022-11-21T17:48:57.674Z,11.00
2022-11-21T17:51:33.502Z,11.10
2022-11-21T17:54:01.374Z,10.60
2022-11-21T17:56:31.685Z,10.70
2022-11-21T17:58:59.079Z,10.20
2022-11-21T18:01:26.240Z,10.80
2022-11-21T18:04:10.133Z,10.80
2022-11-21T18:06:40.682Z,10.80
2022-11-21T18:09:10.516Z,10.20
2022-11-21T18:11:40.292Z,10.30
2022-11-21T18:14:09.901Z,10.70
2022-11-21T18:16:39.242Z,10.50
2022-11-21T18:19:07.023Z,10.20
2022-11-21T18:21:35.844Z,10.40
2022-11-21T18:24:02.656Z,10.60
2022-11-21T18:26:36.201Z,10.80
2022-11-21T18:29:35.541Z,10.90
2022-11-21T18:31:53.268Z,10.60
2022-11-21T18:34:20.074Z,9.50
2022-11-21T18:36:47.689Z,9.20
2022-11-21T18:39:15.657Z,9.40
2022-11-21T18:41:43.474Z,9.60
2022-11-21T18:44:11.981Z,9.40
2022-11-21T18:46:40.432Z,9.20
2022-11-21T18:49:08.244Z,9.00
2022-11-21T18:51:36.230Z,9.00
2022-11-21T18:54:10.863Z,8.60
2022-11-21T18:56:39.362Z,8.90
2022-11-21T18:59:07.029Z,8.90
2022-11-21T19:01:36.822Z,9.30
2022-11-21T19:04:04.313Z,9.40
2022-11-21T19:06:31.947Z,9.70
2022-11-21T19:08:59.110Z,9.60
2022-11-21T19:11:29.074Z,9.50
2022-11-21T19:13:57.081Z,9.10
2022-11-21T19:16:26.984Z,9.20
2022-11-21T19:19:26.496Z,8.80
2022-11-21T19:21:41.927Z,9.40
2022-11-21T19:24:15.307Z,9.30
2022-11-21T19:26:42.826Z,8.90
2022-11-21T19:29:10.591Z,9.30
2022-11-21T19:31:44.150Z,9.50
2022-11-21T19:34:13.191Z,8.80
2022-11-21T19:36:40.159Z,8.90
2022-11-21T19:39:07.028Z,8.90
2022-11-21T19:41:33.958Z,8.80
2022-11-21T19:44:02.142Z,9.20
2022-11-21T19:46:34.005Z,9.00
2022-11-21T19:49:01.966Z,9.10
2022-11-21T19:51:35.214Z,9.00
2022-11-21T19:54:06.208Z,9.40
2022-11-21T19:56:33.332Z,9.30
2022-11-21T19:59:00.088Z,9.30
2022-11-21T20:01:30.014Z,9.00
2022-11-21T20:04:01.462Z,9.40
2022-11-21T20:06:41.316Z,9.20
2022-11-21T20:09:15.563Z,9.40
2022-11-21T20:11:45.332Z,9.20
2022-11-21T20:14:21.419Z,9.10
2022-11-21T20:16:50.156Z,9.00
2022-11-21T20:19:19.592Z,9.10
2022-11-21T20:21:47.229Z,9.50
2022-11-21T20:24:14.642Z,9.40
2022-11-21T20:26:42.391Z,8.80
2022-11-21T20:29:13.158Z,9.40
2022-11-21T20:31:40.715Z,9.00
2022-11-21T20:34:12.612Z,9.00
2022-11-21T20:36:40.212Z,8.90
2022-11-21T20:39:13.228Z,9.00
2022-11-21T20:41:41.512Z,9.10
2022-11-21T20:47:07.128Z,8.90
2022-11-21T20:49:34.796Z,8.80
2022-11-21T20:54:48.440Z,9.10
2022-11-21T20:57:15.797Z,9.00
2022-11-21T20:59:43.149Z,8.80
2022-11-21T21:02:12.201Z,8.60
2022-11-21T21:04:39.492Z,8.80
2022-11-21T21:07:06.344Z,8.90
2022-11-21T21:09:33.115Z,9.00
2022-11-21T21:12:00.106Z,9.10
2022-11-21T21:14:26.837Z,8.90
2022-11-21T21:16:53.567Z,8.90
2022-11-21T21:19:20.620Z,8.90
2022-11-21T21:21:47.449Z,9.20
2022-11-21T21:24:14.844Z,9.10
2022-11-21T21:26:45.745Z,9.50
2022-11-21T21:29:17.022Z,8.80
2022-11-21T21:31:50.627Z,8.90
2022-11-21T21:34:20.056Z,8.90
2022-11-21T21:36:47.080Z,8.80
2022-11-21T21:39:14.197Z,9.10
2022-11-21T21:41:44.311Z,9.20
2022-11-21T21:44:11.076Z,8.80
2022-11-21T21:46:37.831Z,8.80
2022-11-21T21:49:04.722Z,8.70
2022-11-21T21:51:32.162Z,8.70
2022-11-21T21:54:00.173Z,8.90
2022-11-21T21:56:28.678Z,9.00
2022-11-21T21:58:57.828Z,8.90
2022-11-21T22:01:30.789Z,9.00
2022-11-21T22:04:02.885Z,9.30
2022-11-21T22:06:32.745Z,8.90
2022-11-21T22:08:59.896Z,8.90
2022-11-21T22:11:29.769Z,9.20
2022-11-21T22:14:12.294Z,8.90
2022-11-21T22:16:39.928Z,9.10
2022-11-21T22:19:07.039Z,9.30
2022-11-21T22:21:38.401Z,9.10
2022-11-21T22:24:27.559Z,9.50
2022-11-21T22:26:54.740Z,9.10
2022-11-21T22:29:21.494Z,9.60
2022-11-21T22:31:48.231Z,9.50
2022-11-21T22:34:15.044Z,9.50
2022-11-21T22:36:42.040Z,9.20
2022-11-21T22:39:09.443Z,9.00
2022-11-21T22:41:36.206Z,9.20
2022-11-21T22:44:02.998Z,8.90
2022-11-21T22:46:30.388Z,8.90
2022-11-21T22:48:58.331Z,9.00
2022-11-21T22:51:29.139Z,9.20
2022-11-21T22:53:56.309Z,9.10
2022-11-21T22:56:24.358Z,9.20
2022-11-21T22:58:51.612Z,9.30
2022-11-21T23:01:21.553Z,9.20
2022-11-21T23:03:49.273Z,9.20
2022-11-21T23:06:25.346Z,9.40
2022-11-21T23:08:56.442Z,9.30
2022-11-21T23:11:30.690Z,9.40
2022-11-21T23:13:57.744Z,9.30
2022-11-21T23:16:25.702Z,9.20
2022-11-21T23:18:54.525Z,9.40
2022-11-21T23:21:21.544Z,9.10
2022-11-21T23:23:48.500Z,9.00
2022-11-21T23:26:15.598Z,9.30
2022-11-21T23:28:42.330Z,9.20
2022-11-21T23:31:10.395Z,9.30
2022-11-21T23:33:37.223Z,9.40
2022-11-21T23:36:04.461Z,9.20
2022-11-21T23:38:31.252Z,9.40
2022-11-21T23:40:57.975Z,9.40
2022-11-21T23:43:25.010Z,9.30
2022-11-21T23:45:53.230Z,9.20
2022-11-21T23:48:21.304Z,9.10
2022-11-21T23:50:50.289Z,9.10
2022-11-21T23:53:18.191Z,9.30
2022-11-21T23:55:45.087Z,9.30
2022-11-21T23:58:12.875Z,9.10
